Terminal Aerodrome Forecast
Issued by NWS

Home | Current Version | Previous Version | Text Only | Print | Product List | Glossary On
Versions: 1 2 3 4 5 6 7 8 9 10 11 12 13 14 15 16 17 18 19 20 21 22
829
FTUS42 KTAE 300527
TAFECP
TAF
KECP 300527Z 3006/0106 00000KT 3/4SM BR VV003
     FM301400 16007KT P6SM SCT030
     FM301900 18011KT P6SM SCT040
     FM010200 16004KT P6SM SCT250=

USA.gov is the U.S. government's official web portal to all federal, state and local government web resources and services.